Tuesday, September 16, 2014
07:31 UTC
  |  Log In   |  Register Free
Airport Search:

Clayton Municipal Airport
(11A)

Clayton Municipal Airport Diagram
No Airport Diagram Available

FAA data valid effective July 24, 2014 until September 18, 2014 (unless otherwise noted).

 
 
 
 
 
 
 
 
 
 
 
 
 
 

Current Aviation Weather for Clayton Municipal Airport (11A)

METAR data is unavailable for 11A. The nearest METAR location is at KEUF (18.6 nm NE from 11A).

The most recent METAR observation for KEUF was updated at: 0710
METAR Summary (Translated METAR)
KEUF
160658Z AUTO 00000KT 10SM OVC007 24/23 A3007 RMK AO2 SLP176 T02440233
(18.6 nm NE from 11A)
KTOI
160653Z AUTO 00000KT 9SM CLR 23/23 A3008 RMK AO2 SLP181 T02330228
(26.9 nm SW from 11A)
TAF Summary (Translated TAF)
KTOI
(45.3 nm SW from KEUF)
160531Z 1606/1706 00000KT 4SM BR BKN120 FM160800 00000KT 3SM BR SCT004 BKN015 TEMPO 1609/1613 1SM BR OVC002 FM161500 36004KT P6SM SCT020 FM161800 29005KT P6SM VCTS SCT040CB OVC050 FM170300 31003KT P6SM SCT250
  Airport Weather Conditions for 11A

Current weather conditions are
not available for 11A


The nearest NOAA weather station
is at EUF, (18.6 nm NE from 11A)
  
 Current Weather at EUF
75° F
Fair
South winds at 3.5 mph
EUF NOAA Radar

Pressure: 30.07 in
Humidity: 94%
Wind: South at 3.5 MPH (3 KT)
Dew Point: 73.0°F
Visibility: 10.00 mi


Airport Weather Forecast for 11A

Translated METAR and TAF for KEUF
Translated METAR for KEUF (0725 UTC 16 September 2014)
found at http://aviationweather.gov/adds/metars/
 
METAR text: KEUF 160658Z AUTO 00000KT 10SM OVC007 24/23 A3007 RMK AO2 SLP176 T02440233
Conditions at: KEUF (EUFAULA , AL, US) observed 0658 UTC 16 September 2014
Temperature: 24.4°C (76°F)
Dewpoint: 23.3°C (74°F) [RH = 94%]
Pressure (altimeter): 30.07 inches Hg (1018.4 mb)
[Sea-level pressure: 1017.6 mb]
Winds: calm
Visibility: 10 or more miles (16+ km)
Ceiling: 700 feet AGL
Clouds: overcast cloud deck at 700 feet AGL
Weather: automated observation with no human augmentation;
there may or may not be significant weather present at this time
Translated TAF for KEUF

There is no translated TAF available for this airport

Find All Airport Services Find A Hotel Find A Rental Car Find A Golf Course Find A Restaurant $100 Hamburger



FBO's on the Field
FBO Company Facility Photos Services Transportation Aviation Fuel Prices: Prices include tax
Catering Weather Repair Courtesy Rental Type 100LL JetA JetA+ MOGAS 8087
 
Add another FBO Facility Photos Catering Weather Repair Courtesy Rental Type 100LL JetA JetA+ MOGAS 8087
Services Transportation Aviation Fuel Prices: Prices include tax
There are no FBO's currently reporting fuel at 11A. List your FBO now


model-print
model-print
model-print
model-print